Garrison, ND (58540)

2:06 AM CDT on October 31, 2014 (GMT -0500)
Iverson Ranch | Change Station
CLOSE
Current Station
Personal Weather Station
Location: Douglas, ND
Elevation: 2005 ft
Nearby Weather Stations

Elev 2005 ft 47.72 °N, 101.47 °W | Updated 5 seconds ago

Clear
Clear
43.7 °F
Feels Like 27 °F
N
98.9
Wind Variable Wind from North
Gusts 98.9 mph

Today
High -- | Low -- °F
--% Chance of Precip.
Yesterday
High -- | Low -- °F
Precip. -- in
8:28 AM 6:29 PM
First Quarter, 52% visible
Pressure 30.57 in
Visibility 10.0 miles
Clouds Few 3000 ft
Windchill 27 °F
Dew Point 43 °F
Humidity 96%
Rainfall 0.00 in
Snow Depth Not available.
UV 0 out of 12
Pollen .10 out of 12
Air Quality Not available.
Flu Activity Not available.
METAR KHZE 310655Z AUTO 15005KT 10SM FEW030 M08/M10 A3057 RMK AO2

More Conditions Fewer Conditions

Pressure 30.57 in
Visibility 10.0 miles
Clouds Few 3000 ft
Windchill 27 °F
Dew Point 43 °F
Humidity 96%
Rainfall 0.00 in
Snow Depth Not available.
UV 0 out of 12
Pollen .10 out of 12
Air Quality Not available.
Flu Activity Not available.
METAR KHZE 310655Z AUTO 15005KT 10SM FEW030 M08/M10 A3057 RMK AO2

More Conditions Fewer Conditions

10-Day Weather Forecast

Almanac

Astronomy

Oct. 31, 2014 Rise Set
Actual Time
Civil Twilight
Nautical Twilight
Astronomical Twilight
Moon
Length of Visible Light
Length of Day
Tomorrow will be .
, % of the Moon is Illuminated

Today's Extremes

State Highs State Lows

Community

WunderPhotos

Upload Photos

1,766,571 photos uploaded!

WunderBlogs® & News

Nearby

Air Quality

  Air Quality AQ Index Pollutant
Not available.

Snow Depth

Station Depth Elevation

Earthquake Activity

City Distance Mag. Time & Date
Minimum magnitude displayed is 2.5.

Coastal Water Temperatures

Place Temperature

Nearby Weather Stations